createdAt,value
2022-08-03T00:01:32.026Z,19.70
2022-08-03T00:03:58.909Z,19.70
2022-08-03T00:06:26.207Z,19.60
2022-08-03T00:08:52.993Z,19.60
2022-08-03T00:11:20.792Z,19.60
2022-08-03T00:13:47.685Z,19.60
2022-08-03T00:16:14.757Z,19.60
2022-08-03T00:18:41.862Z,19.60
2022-08-03T00:21:08.946Z,19.60
2022-08-03T00:23:51.773Z,19.60
2022-08-03T00:26:20.735Z,19.60
2022-08-03T00:28:47.937Z,19.50
2022-08-03T00:31:15.097Z,19.50
2022-08-03T00:33:59.585Z,19.40
2022-08-03T00:36:28.847Z,19.40
2022-08-03T00:38:56.630Z,19.40
2022-08-03T00:41:23.691Z,19.30
2022-08-03T00:43:50.617Z,19.30
2022-08-03T00:46:21.448Z,19.30
2022-08-03T00:48:50.380Z,19.20
2022-08-03T00:51:18.145Z,19.20
2022-08-03T00:53:45.816Z,19.20
2022-08-03T00:56:17.102Z,19.10
2022-08-03T00:58:45.248Z,19.10
2022-08-03T01:01:12.867Z,19.00
2022-08-03T01:03:40.313Z,19.00
2022-08-03T01:06:19.302Z,18.90
2022-08-03T01:09:02.168Z,18.90
2022-08-03T01:12:01.835Z,18.90
2022-08-03T01:14:45.914Z,18.90
2022-08-03T01:17:25.488Z,18.80
2022-08-03T01:20:10.664Z,18.70
2022-08-03T01:22:56.057Z,18.70
2022-08-03T01:25:26.029Z,18.60
2022-08-03T01:28:30.317Z,18.60
2022-08-03T01:31:01.587Z,18.60
2022-08-03T01:33:44.007Z,18.50
2022-08-03T01:36:16.310Z,18.50
2022-08-03T01:38:54.145Z,18.50
2022-08-03T01:41:26.616Z,18.40
2022-08-03T01:44:28.487Z,18.40
2022-08-03T01:46:47.529Z,18.40
2022-08-03T01:49:17.006Z,18.30
2022-08-03T01:52:02.946Z,18.30
2022-08-03T01:54:34.690Z,18.20
2022-08-03T01:57:02.887Z,18.20
2022-08-03T01:59:32.529Z,18.20
2022-08-03T02:02:15.612Z,18.20
2022-08-03T02:04:48.989Z,18.10
2022-08-03T02:07:16.619Z,18.10
2022-08-03T02:09:47.093Z,18.10
2022-08-03T02:12:15.322Z,18.10
2022-08-03T02:14:45.570Z,18.00
2022-08-03T02:17:14.231Z,18.00
2022-08-03T02:19:42.847Z,18.00
2022-08-03T02:22:12.431Z,18.00
2022-08-03T02:24:39.553Z,18.00
2022-08-03T02:27:13.308Z,18.00
2022-08-03T02:29:42.574Z,17.90
2022-08-03T02:32:14.363Z,17.90
2022-08-03T02:34:46.152Z,17.90
2022-08-03T02:37:15.049Z,17.80
2022-08-03T02:39:43.018Z,17.80
2022-08-03T02:42:12.059Z,17.80
2022-08-03T02:44:43.729Z,17.80
2022-08-03T02:47:12.544Z,17.80
2022-08-03T02:49:50.876Z,17.80
2022-08-03T02:52:24.268Z,17.80
2022-08-03T02:54:53.239Z,17.70
2022-08-03T02:57:21.691Z,17.70
2022-08-03T02:59:48.910Z,17.70
2022-08-03T03:02:18.338Z,17.70
2022-08-03T03:05:51.792Z,17.60
2022-08-03T03:07:51.127Z,17.60
2022-08-03T03:10:21.956Z,17.60
2022-08-03T03:12:52.413Z,17.50
2022-08-03T03:15:19.364Z,17.50
2022-08-03T03:17:48.339Z,17.50
2022-08-03T03:20:16.366Z,17.50
2022-08-03T03:22:59.730Z,17.40
2022-08-03T03:25:27.509Z,17.50
2022-08-03T03:27:54.593Z,17.40
2022-08-03T03:30:21.742Z,17.40
2022-08-03T03:32:49.055Z,17.40
2022-08-03T03:35:16.997Z,17.40
2022-08-03T03:37:43.927Z,17.30
2022-08-03T03:40:11.346Z,17.40
2022-08-03T03:42:38.539Z,17.30
2022-08-03T03:45:07.063Z,17.30
2022-08-03T03:47:37.626Z,17.30
2022-08-03T03:50:06.538Z,17.30
2022-08-03T03:52:34.630Z,17.30
2022-08-03T03:55:01.878Z,17.30
2022-08-03T03:57:29.516Z,17.30
2022-08-03T03:59:56.680Z,17.30
2022-08-03T04:02:24.086Z,17.30
2022-08-03T04:05:09.417Z,17.30
2022-08-03T04:08:14.996Z,17.30
2022-08-03T04:10:58.948Z,17.30
2022-08-03T04:13:31.213Z,17.30
2022-08-03T04:15:59.330Z,17.30
2022-08-03T04:18:30.296Z,17.30
2022-08-03T04:20:58.932Z,17.30
2022-08-03T04:23:28.027Z,17.40
2022-08-03T04:25:56.399Z,17.40
2022-08-03T04:28:31.427Z,17.40
2022-08-03T04:31:01.155Z,17.40
2022-08-03T04:33:32.307Z,17.50
2022-08-03T04:36:03.635Z,17.50
2022-08-03T04:38:36.649Z,17.50
2022-08-03T04:41:04.938Z,17.60
2022-08-03T04:43:33.526Z,17.70
2022-08-03T04:46:02.326Z,17.70
2022-08-03T04:48:29.746Z,17.80
2022-08-03T04:50:57.139Z,17.80
2022-08-03T04:53:24.184Z,17.90
2022-08-03T04:55:51.141Z,17.90
2022-08-03T04:58:17.976Z,18.00
2022-08-03T05:00:45.630Z,18.10
2022-08-03T05:03:23.521Z,18.20
2022-08-03T05:05:52.380Z,18.30
2022-08-03T05:08:20.674Z,18.30
2022-08-03T05:10:55.837Z,18.50
2022-08-03T05:13:26.211Z,18.50
2022-08-03T05:15:53.107Z,18.60
2022-08-03T05:18:19.962Z,18.70
2022-08-03T05:20:47.025Z,18.80
2022-08-03T05:23:13.969Z,18.90
2022-08-03T05:25:41.067Z,18.90
2022-08-03T05:28:16.922Z,19.00
2022-08-03T05:30:43.729Z,19.10
2022-08-03T05:33:11.128Z,19.30
2022-08-03T05:36:00.847Z,19.30
2022-08-03T05:38:28.530Z,19.40
2022-08-03T05:41:21.960Z,19.40
2022-08-03T05:43:45.137Z,19.50
2022-08-03T05:46:13.152Z,19.70
2022-08-03T05:48:40.308Z,19.80
2022-08-03T05:51:11.675Z,19.90
2022-08-03T05:53:39.638Z,20.00
2022-08-03T05:56:14.466Z,20.10
2022-08-03T05:58:47.371Z,20.20
2022-08-03T06:01:15.496Z,20.40
2022-08-03T06:03:42.595Z,20.50
2022-08-03T06:06:09.612Z,20.60
2022-08-03T06:08:36.482Z,20.80
2022-08-03T06:11:04.190Z,20.90
2022-08-03T06:13:31.011Z,21.00
2022-08-03T06:15:58.123Z,21.10
2022-08-03T06:18:25.004Z,21.20
2022-08-03T06:20:52.581Z,21.40
2022-08-03T06:23:20.182Z,21.50
2022-08-03T06:25:47.349Z,21.60
2022-08-03T06:31:02.282Z,21.80
2022-08-03T06:34:31.010Z,22.00
2022-08-03T06:36:16.535Z,22.10
2022-08-03T06:38:43.433Z,22.30
2022-08-03T06:41:10.317Z,22.40
2022-08-03T06:43:38.142Z,22.50
2022-08-03T06:46:24.616Z,22.60
2022-08-03T06:48:53.415Z,22.70
2022-08-03T06:51:20.346Z,22.80
2022-08-03T06:53:47.192Z,23.00
2022-08-03T06:56:14.120Z,23.10
2022-08-03T06:58:41.075Z,23.30
2022-08-03T07:01:07.893Z,23.50
2022-08-03T07:03:34.802Z,23.60
2022-08-03T07:06:02.436Z,23.80
2022-08-03T07:08:33.891Z,23.90
2022-08-03T07:11:01.716Z,24.00
2022-08-03T07:13:28.573Z,24.20
2022-08-03T07:15:56.594Z,24.40
2022-08-03T07:18:27.593Z,24.50
2022-08-03T07:20:57.594Z,24.60
2022-08-03T07:23:25.526Z,24.70
2022-08-03T07:25:52.726Z,24.90
2022-08-03T07:28:20.476Z,25.00
2022-08-03T07:30:47.697Z,25.10
2022-08-03T07:33:15.292Z,25.20
2022-08-03T07:35:42.687Z,25.20
2022-08-03T07:38:09.548Z,25.20
2022-08-03T07:40:36.362Z,25.20
2022-08-03T07:43:03.852Z,25.20
2022-08-03T07:45:31.630Z,25.20
2022-08-03T07:47:58.520Z,25.20
2022-08-03T07:50:25.555Z,25.30
2022-08-03T07:52:54.040Z,25.30
2022-08-03T07:55:23.948Z,25.40
2022-08-03T07:58:23.813Z,25.40
2022-08-03T08:00:53.138Z,25.60
2022-08-03T08:03:21.897Z,25.80
2022-08-03T08:05:49.337Z,25.90
2022-08-03T08:08:16.221Z,26.00
2022-08-03T08:10:43.063Z,26.00
2022-08-03T08:13:24.982Z,26.00
2022-08-03T08:15:51.802Z,26.20
2022-08-03T08:18:18.785Z,26.30
2022-08-03T08:20:45.762Z,26.40
2022-08-03T08:23:37.879Z,26.40
2022-08-03T08:25:59.373Z,26.40
2022-08-03T08:28:32.151Z,26.50
2022-08-03T08:31:00.142Z,26.60
2022-08-03T08:33:37.296Z,26.70
2022-08-03T08:36:14.819Z,26.80
2022-08-03T08:38:44.565Z,27.00
2022-08-03T08:41:12.862Z,27.10
2022-08-03T08:43:40.018Z,27.10
2022-08-03T08:46:08.637Z,27.00
2022-08-03T08:48:40.475Z,27.10
2022-08-03T08:51:09.354Z,27.10
2022-08-03T08:53:38.366Z,27.10
2022-08-03T08:56:07.772Z,27.20
2022-08-03T08:58:38.016Z,27.20
2022-08-03T09:01:05.809Z,27.40
2022-08-03T09:03:36.157Z,27.30
2022-08-03T09:06:03.946Z,27.40
2022-08-03T09:08:32.226Z,27.60
2022-08-03T09:10:59.735Z,27.70
2022-08-03T09:13:26.674Z,27.80
2022-08-03T09:16:22.058Z,27.90
2022-08-03T09:18:51.757Z,28.00
2022-08-03T09:21:31.846Z,28.20
2022-08-03T09:24:03.375Z,28.40
2022-08-03T09:26:32.203Z,28.50
2022-08-03T09:29:04.902Z,28.50
2022-08-03T09:31:38.141Z,28.60
2022-08-03T09:34:07.111Z,28.60
2022-08-03T09:36:44.731Z,28.50
2022-08-03T09:39:40.442Z,28.50
2022-08-03T09:42:14.958Z,28.60
2022-08-03T09:44:52.212Z,28.70
2022-08-03T09:47:29.733Z,28.70
2022-08-03T09:50:01.414Z,28.70
2022-08-03T09:52:38.910Z,28.80
2022-08-03T09:56:30.912Z,28.70
2022-08-03T09:58:07.322Z,28.70
2022-08-03T10:00:58.579Z,28.90
2022-08-03T10:03:29.296Z,28.80
2022-08-03T10:05:59.743Z,28.90
2022-08-03T10:08:27.123Z,29.10
2022-08-03T10:10:54.763Z,29.10
2022-08-03T10:13:23.214Z,29.20
2022-08-03T10:16:22.644Z,29.30
2022-08-03T10:18:37.715Z,29.40
2022-08-03T10:21:08.204Z,29.60
2022-08-03T10:23:35.846Z,29.70
2022-08-03T10:26:05.559Z,29.80
2022-08-03T10:28:41.483Z,29.80
2022-08-03T10:31:12.725Z,29.90
2022-08-03T10:33:50.713Z,30.00
2022-08-03T10:36:22.148Z,30.20
2022-08-03T10:38:54.118Z,30.40
2022-08-03T10:41:26.109Z,30.40
2022-08-03T10:44:04.615Z,30.60
2022-08-03T10:46:33.433Z,30.60
2022-08-03T10:49:00.779Z,30.60
2022-08-03T10:51:31.963Z,30.40
2022-08-03T10:54:01.730Z,30.40
2022-08-03T10:56:54.605Z,30.30
2022-08-03T10:59:46.483Z,30.30
2022-08-03T11:02:14.961Z,30.10
2022-08-03T11:04:42.880Z,30.10
2022-08-03T11:07:24.625Z,30.30
2022-08-03T11:09:56.580Z,30.50
2022-08-03T11:12:32.693Z,30.60
2022-08-03T11:15:06.563Z,30.60
2022-08-03T11:17:46.321Z,30.70
2022-08-03T11:20:51.823Z,30.70
2022-08-03T11:24:02.455Z,30.70
2022-08-03T11:26:28.194Z,30.80
2022-08-03T11:29:30.801Z,30.90
2022-08-03T11:31:58.181Z,31.00
2022-08-03T11:34:26.130Z,31.00
2022-08-03T11:37:19.189Z,31.00
2022-08-03T11:39:47.918Z,31.00
2022-08-03T11:42:24.303Z,30.90
2022-08-03T11:44:55.802Z,30.90
2022-08-03T11:47:27.147Z,31.00
2022-08-03T11:50:00.361Z,31.00
2022-08-03T11:52:33.872Z,31.10
2022-08-03T11:55:01.015Z,31.10
2022-08-03T11:59:01.643Z,31.10
2022-08-03T12:00:21.344Z,31.30
2022-08-03T12:03:06.229Z,31.40
2022-08-03T12:05:41.673Z,31.50
2022-08-03T12:08:29.090Z,31.50
2022-08-03T12:10:58.509Z,31.60
2022-08-03T12:14:44.169Z,31.70
2022-08-03T12:16:23.070Z,31.80
2022-08-03T12:19:04.828Z,31.80
2022-08-03T12:21:32.365Z,31.70
2022-08-03T12:24:05.786Z,31.70
2022-08-03T12:26:59.032Z,31.70
2022-08-03T12:29:27.170Z,31.70
2022-08-03T12:31:56.049Z,31.70
2022-08-03T12:34:23.369Z,31.70
2022-08-03T12:36:59.426Z,31.60
2022-08-03T12:39:30.861Z,31.70
2022-08-03T12:41:58.113Z,31.50
2022-08-03T12:44:33.796Z,31.40
2022-08-03T12:47:02.251Z,31.30
2022-08-03T12:49:30.416Z,31.20
2022-08-03T12:52:05.284Z,31.10
2022-08-03T12:54:35.999Z,31.10
2022-08-03T12:57:03.927Z,31.20
2022-08-03T12:59:35.189Z,31.40
2022-08-03T13:02:18.427Z,31.50
2022-08-03T13:04:47.759Z,31.80
2022-08-03T13:07:16.203Z,31.90
2022-08-03T13:09:44.940Z,31.90
2022-08-03T13:12:24.018Z,31.80
2022-08-03T13:14:56.499Z,31.60
2022-08-03T13:17:23.566Z,31.50
2022-08-03T13:19:51.511Z,31.40
2022-08-03T13:22:24.188Z,31.40
2022-08-03T13:25:00.347Z,31.30
2022-08-03T13:28:04.014Z,31.50
2022-08-03T13:30:29.991Z,31.50
2022-08-03T13:32:58.728Z,31.70
2022-08-03T13:35:25.820Z,31.80
2022-08-03T13:37:52.702Z,31.90
2022-08-03T13:40:19.716Z,31.90
2022-08-03T13:42:50.691Z,31.80
2022-08-03T13:45:17.530Z,31.60
2022-08-03T13:47:44.443Z,31.50
2022-08-03T13:50:11.692Z,31.50
2022-08-03T13:52:38.553Z,31.60
2022-08-03T13:55:07.627Z,31.80
2022-08-03T13:58:04.669Z,31.90
2022-08-03T14:00:28.901Z,32.00
2022-08-03T14:03:09.187Z,32.10
2022-08-03T14:05:39.452Z,32.00
2022-08-03T14:08:07.483Z,32.00
2022-08-03T14:10:37.279Z,31.90
2022-08-03T14:13:05.146Z,31.80
2022-08-03T14:15:32.366Z,31.70
2022-08-03T14:18:15.869Z,31.60
2022-08-03T14:20:56.463Z,31.50
2022-08-03T14:23:25.072Z,31.40
2022-08-03T14:25:53.155Z,31.40
2022-08-03T14:28:24.037Z,31.60
2022-08-03T14:30:55.888Z,31.80
2022-08-03T14:33:22.736Z,32.00
2022-08-03T14:35:50.416Z,32.30
2022-08-03T14:38:17.681Z,32.50
2022-08-03T14:40:44.924Z,32.70
2022-08-03T14:43:11.837Z,32.80
2022-08-03T14:45:39.697Z,32.90
2022-08-03T14:50:34.054Z,33.00
2022-08-03T14:50:55.216Z,33.20
2022-08-03T14:53:22.512Z,33.50
2022-08-03T14:55:51.576Z,33.50
2022-08-03T14:58:23.700Z,33.40
2022-08-03T15:00:51.340Z,33.30
2022-08-03T15:03:26.173Z,33.10
2022-08-03T15:05:55.092Z,33.00
2022-08-03T15:08:23.372Z,32.80
2022-08-03T15:10:50.789Z,32.80
2022-08-03T15:13:18.461Z,32.90
2022-08-03T15:15:46.059Z,33.30
2022-08-03T15:18:12.903Z,33.80
2022-08-03T15:20:44.801Z,34.20
2022-08-03T15:23:13.430Z,34.50
2022-08-03T15:26:28.056Z,34.80
2022-08-03T15:28:27.160Z,35.10
2022-08-03T15:30:54.225Z,35.30
2022-08-03T15:33:21.287Z,35.40
2022-08-03T15:35:48.264Z,35.60
2022-08-03T15:38:15.348Z,35.90
2022-08-03T15:40:42.375Z,36.10
2022-08-03T15:43:09.283Z,36.30
2022-08-03T15:45:36.979Z,36.40
2022-08-03T15:48:05.505Z,36.40
2022-08-03T15:50:32.372Z,36.60
2022-08-03T15:52:59.199Z,36.70
2022-08-03T15:55:26.177Z,36.90
2022-08-03T15:59:09.647Z,36.90
2022-08-03T16:00:40.624Z,36.70
2022-08-03T16:03:07.463Z,36.80
2022-08-03T16:05:34.495Z,36.20
2022-08-03T16:08:03.459Z,35.90
2022-08-03T16:10:32.439Z,35.40
2022-08-03T16:13:00.134Z,35.40
2022-08-03T16:15:27.707Z,35.40
2022-08-03T16:17:54.615Z,35.40
2022-08-03T16:20:34.023Z,35.40
2022-08-03T16:23:07.725Z,35.80
2022-08-03T16:25:38.394Z,36.00
2022-08-03T16:28:08.075Z,36.20
2022-08-03T16:30:40.654Z,36.30
2022-08-03T16:33:07.592Z,36.30
2022-08-03T16:35:34.500Z,36.70
2022-08-03T16:38:02.210Z,36.70
2022-08-03T16:40:30.452Z,36.70
2022-08-03T16:42:57.392Z,36.90
2022-08-03T16:45:24.444Z,37.00
2022-08-03T16:48:01.593Z,36.90
2022-08-03T16:50:32.680Z,37.00
2022-08-03T16:52:59.623Z,36.60
2022-08-03T16:55:43.606Z,36.60
2022-08-03T16:58:15.168Z,36.80
2022-08-03T17:00:43.098Z,36.90
2022-08-03T17:03:19.041Z,36.40
2022-08-03T17:05:49.741Z,36.10
2022-08-03T17:08:18.910Z,35.70
2022-08-03T17:10:53.338Z,35.80
2022-08-03T17:13:39.847Z,35.80
2022-08-03T17:16:09.720Z,35.50
2022-08-03T17:18:42.246Z,35.20
2022-08-03T17:21:17.474Z,34.60
2022-08-03T17:24:12.280Z,34.10
2022-08-03T17:26:46.392Z,33.70
2022-08-03T17:29:22.914Z,33.40
2022-08-03T17:31:53.368Z,33.10
2022-08-03T17:34:26.271Z,32.90
2022-08-03T17:37:27.072Z,32.80
2022-08-03T17:39:58.212Z,32.80
2022-08-03T17:42:31.824Z,32.80
2022-08-03T17:45:03.857Z,32.80
2022-08-03T17:47:42.838Z,32.70
2022-08-03T17:50:24.127Z,32.60
2022-08-03T17:53:07.592Z,32.60
2022-08-03T17:55:56.225Z,32.50
2022-08-03T17:58:39.721Z,32.40
2022-08-03T18:01:58.367Z,32.30
2022-08-03T18:04:30.056Z,32.10
2022-08-03T18:06:59.463Z,31.90
2022-08-03T18:10:03.805Z,31.70
2022-08-03T18:12:51.791Z,31.50
2022-08-03T18:15:27.503Z,31.40
2022-08-03T18:18:02.221Z,31.20
2022-08-03T18:20:32.759Z,31.00
2022-08-03T18:23:04.757Z,30.80
2022-08-03T18:25:42.976Z,30.70
2022-08-03T18:28:18.761Z,30.50
2022-08-03T18:30:54.536Z,30.30
2022-08-03T18:34:16.480Z,30.30
2022-08-03T18:36:21.720Z,30.00
2022-08-03T18:38:59.382Z,29.90
2022-08-03T18:41:33.646Z,29.80
2022-08-03T18:44:07.963Z,29.60
2022-08-03T18:47:26.921Z,29.50
2022-08-03T18:50:41.127Z,29.20
2022-08-03T18:54:03.317Z,29.10
2022-08-03T18:56:54.485Z,29.00
2022-08-03T18:59:50.786Z,28.80
2022-08-03T19:03:01.860Z,28.70
2022-08-03T19:05:49.368Z,28.60
2022-08-03T19:08:49.693Z,28.40
2022-08-03T19:14:29.581Z,28.20
2022-08-03T19:17:08.561Z,28.10
2022-08-03T19:19:44.022Z,28.00
2022-08-03T19:22:16.321Z,27.90
2022-08-03T19:24:46.028Z,27.80
2022-08-03T19:27:14.096Z,27.70
2022-08-03T19:29:58.677Z,27.70
2022-08-03T19:32:30.785Z,27.50
2022-08-03T19:34:59.919Z,27.40
2022-08-03T19:37:38.103Z,27.40
2022-08-03T19:40:10.665Z,27.30
2022-08-03T19:42:43.609Z,27.20
2022-08-03T19:45:14.762Z,27.10
2022-08-03T19:47:52.544Z,26.90
2022-08-03T19:50:20.547Z,26.90
2022-08-03T19:52:49.693Z,26.70
2022-08-03T19:55:18.192Z,26.60
2022-08-03T19:57:49.224Z,26.50
2022-08-03T20:00:20.063Z,26.30
2022-08-03T20:02:54.006Z,26.30
2022-08-03T20:05:21.101Z,26.20
2022-08-03T20:07:50.651Z,26.10
2022-08-03T20:10:19.377Z,26.00
2022-08-03T20:12:48.429Z,25.90
2022-08-03T20:15:22.213Z,25.80
2022-08-03T20:17:55.628Z,25.70
2022-08-03T20:20:43.324Z,25.60
2022-08-03T20:23:18.104Z,25.50
2022-08-03T20:25:58.873Z,25.40
2022-08-03T20:28:53.411Z,25.30
2022-08-03T20:31:25.240Z,25.20
2022-08-03T20:34:00.821Z,25.10
2022-08-03T20:36:27.928Z,25.00
2022-08-03T20:38:57.967Z,24.90
2022-08-03T20:41:25.139Z,24.90
2022-08-03T20:43:52.060Z,24.80
2022-08-03T20:49:07.524Z,24.70
2022-08-03T20:51:52.597Z,24.60
2022-08-03T20:54:31.273Z,24.50
2022-08-03T20:57:03.961Z,24.40
2022-08-03T20:59:46.954Z,24.40
2022-08-03T21:02:19.658Z,24.40
2022-08-03T21:04:56.220Z,24.30
2022-08-03T21:08:04.319Z,24.30
2022-08-03T21:10:15.453Z,24.20
2022-08-03T21:13:10.907Z,28.30
2022-08-03T21:13:12.685Z,24.20
2022-08-03T21:13:12.862Z,24.80
2022-08-03T21:16:06.719Z,24.20
2022-08-03T21:18:35.594Z,24.20
2022-08-03T21:21:03.242Z,24.10
2022-08-03T21:23:35.136Z,24.10
2022-08-03T21:26:20.621Z,24.00
2022-08-03T21:28:52.251Z,23.90
2022-08-03T21:31:25.414Z,23.80
2022-08-03T21:33:57.866Z,23.80
2022-08-03T21:36:27.774Z,23.80
2022-08-03T21:38:57.484Z,23.70
2022-08-03T21:41:30.523Z,23.70
2022-08-03T21:43:58.257Z,23.70
2022-08-03T21:46:27.113Z,23.70
2022-08-03T21:50:05.846Z,23.70
2022-08-03T21:51:48.767Z,23.70
2022-08-03T21:54:16.703Z,23.70
2022-08-03T21:56:47.343Z,23.80
2022-08-03T21:59:19.223Z,23.70
2022-08-03T22:01:48.927Z,23.70
2022-08-03T22:04:50.445Z,23.60
2022-08-03T22:07:08.672Z,23.60
2022-08-03T22:09:36.515Z,23.70
2022-08-03T22:12:04.147Z,23.70
2022-08-03T22:14:33.079Z,23.70
2022-08-03T22:17:06.186Z,23.80
2022-08-03T22:19:34.157Z,23.70
2022-08-03T22:22:06.081Z,23.70
2022-08-03T22:24:36.645Z,23.70
2022-08-03T22:27:22.301Z,23.60
2022-08-03T22:29:50.070Z,23.50
2022-08-03T22:32:17.245Z,23.40
2022-08-03T22:34:46.285Z,23.40
2022-08-03T22:37:16.809Z,23.40
2022-08-03T22:39:44.387Z,23.30
2022-08-03T22:42:11.491Z,23.30
2022-08-03T22:44:38.503Z,23.30
2022-08-03T22:47:05.894Z,23.30
2022-08-03T22:49:35.181Z,23.20
2022-08-03T22:52:02.621Z,23.20
2022-08-03T22:54:32.166Z,23.10
2022-08-03T22:56:59.228Z,23.00
2022-08-03T22:59:38.941Z,22.90
2022-08-03T23:02:20.381Z,22.80
2022-08-03T23:05:00.297Z,22.80
2022-08-03T23:07:53.571Z,22.70
2022-08-03T23:10:20.594Z,22.60
2022-08-03T23:12:49.513Z,22.60
2022-08-03T23:15:17.247Z,22.50
2022-08-03T23:17:57.408Z,22.50
2022-08-03T23:20:26.481Z,22.60
2022-08-03T23:22:54.568Z,22.50
2022-08-03T23:25:22.117Z,22.50
2022-08-03T23:28:05.615Z,22.50
2022-08-03T23:30:34.702Z,22.40
2022-08-03T23:33:02.934Z,22.40
2022-08-03T23:36:20.177Z,22.30
2022-08-03T23:38:36.795Z,22.20
2022-08-03T23:41:05.242Z,22.20
2022-08-03T23:43:50.871Z,22.10
2022-08-03T23:46:22.038Z,22.00
2022-08-03T23:48:49.882Z,22.00
2022-08-03T23:51:41.023Z,21.90
2022-08-03T23:54:28.057Z,21.80
2022-08-03T23:57:05.598Z,21.70
2022-08-03T23:59:38.262Z,21.70
